Аэропорт: Минеральные Воды. Минеральные Воды

ICAO: URMM

METAR:
2020-06-01 02:00:00
URMM 010200Z 07003MPS 9999 NSC 14/12 Q1012 R12/090070 NOSIG RMK QFE731/0975
METAR:
2020-05-31 23:00:00
TAF URMM 312300Z 0100/0124 10003G08MPS 9999 BKN030 TX25/0112Z TN10/0103Z TEMPO 0100/0118 12005G12MPS 6000 -SHRA BKN016 BKN030CB